createdAt,value
2023-04-09T00:01:03.263Z,28.02
2023-04-09T00:03:30.787Z,33.33
2023-04-09T00:05:58.312Z,27.67
2023-04-09T00:08:25.573Z,31.08
2023-04-09T00:10:53.325Z,31.38
2023-04-09T00:13:31.760Z,31.63
2023-04-09T00:16:05.564Z,32.83
2023-04-09T00:18:32.891Z,31.90
2023-04-09T00:21:00.147Z,31.77
2023-04-09T00:23:27.339Z,28.83
2023-04-09T00:25:54.676Z,28.52
2023-04-09T00:28:21.936Z,27.58
2023-04-09T00:30:49.117Z,32.20
2023-04-09T00:33:16.373Z,32.45
2023-04-09T00:35:43.278Z,32.45
2023-04-09T00:38:10.446Z,34.38
2023-04-09T00:40:37.656Z,35.90
2023-04-09T00:43:04.945Z,33.45
2023-04-09T00:45:32.220Z,29.85
2023-04-09T00:47:59.501Z,30.88
2023-04-09T00:50:26.547Z,31.00
2023-04-09T00:52:53.429Z,31.20
2023-04-09T00:55:22.485Z,29.90
2023-04-09T00:57:49.684Z,32.88
2023-04-09T01:00:16.617Z,33.30
2023-04-09T01:02:44.379Z,36.17
2023-04-09T01:05:12.762Z,42.78
2023-04-09T01:08:13.478Z,44.63
2023-04-09T01:10:49.930Z,54.90
2023-04-09T01:13:43.701Z,48.05
2023-04-09T01:18:38.463Z,49.15
2023-04-09T01:21:36.447Z,51.05
2023-04-09T01:24:24.672Z,46.80
2023-04-09T01:27:01.646Z,50.17
2023-04-09T01:29:32.206Z,41.95
2023-04-09T01:32:00.762Z,43.45
2023-04-09T01:34:29.792Z,41.45
2023-04-09T01:36:59.590Z,40.22
2023-04-09T01:39:27.152Z,42.15
2023-04-09T01:41:54.657Z,41.17
2023-04-09T01:44:22.155Z,38.47
2023-04-09T01:46:50.054Z,34.38
2023-04-09T01:49:18.096Z,40.33
2023-04-09T01:51:45.013Z,39.05
2023-04-09T01:54:11.822Z,40.03
2023-04-09T01:56:47.084Z,38.50
2023-04-09T01:59:14.740Z,36.05
2023-04-09T02:01:47.270Z,34.70
2023-04-09T02:04:28.868Z,33.50
2023-04-09T02:07:27.122Z,38.50
2023-04-09T02:09:55.280Z,32.42
2023-04-09T02:12:23.464Z,29.98
2023-04-09T02:14:53.645Z,33.95
2023-04-09T02:17:20.934Z,38.45
2023-04-09T02:19:48.748Z,33.25
2023-04-09T02:22:17.328Z,32.30
2023-04-09T02:24:44.675Z,34.33
2023-04-09T02:27:11.544Z,37.40
2023-04-09T02:29:40.462Z,32.30
2023-04-09T02:32:07.794Z,36.88
2023-04-09T02:34:34.604Z,32.42
2023-04-09T02:37:01.943Z,34.15
2023-04-09T02:39:28.851Z,37.53
2023-04-09T02:41:56.365Z,36.75
2023-04-09T02:44:23.599Z,38.65
2023-04-09T02:46:52.156Z,39.03
2023-04-09T02:49:19.031Z,35.65
2023-04-09T02:51:46.385Z,36.10
2023-04-09T02:54:13.593Z,35.58
2023-04-09T02:56:40.835Z,42.08
2023-04-09T02:59:07.774Z,36.45
2023-04-09T03:01:34.813Z,38.08
2023-04-09T03:04:02.229Z,34.03
2023-04-09T03:06:29.339Z,35.50
2023-04-09T03:08:56.600Z,38.20
2023-04-09T03:11:23.810Z,36.15
2023-04-09T03:13:50.673Z,39.80
2023-04-09T03:16:17.547Z,38.45
2023-04-09T03:18:44.489Z,38.40
2023-04-09T03:21:14.766Z,38.75
2023-04-09T03:23:41.897Z,37.58
2023-04-09T03:26:09.203Z,37.08
2023-04-09T03:28:36.580Z,37.88
2023-04-09T03:31:03.394Z,46.78
2023-04-09T03:33:30.322Z,43.38
2023-04-09T03:35:57.597Z,48.95
2023-04-09T03:38:24.524Z,45.00
2023-04-09T03:40:51.326Z,46.47
2023-04-09T03:43:18.207Z,38.67
2023-04-09T03:45:45.633Z,39.97
2023-04-09T03:48:12.833Z,41.17
2023-04-09T03:50:40.973Z,42.67
2023-04-09T03:53:08.361Z,44.80
2023-04-09T03:55:35.563Z,46.10
2023-04-09T03:58:02.723Z,42.70
2023-04-09T04:00:29.540Z,46.08
2023-04-09T04:02:56.846Z,48.60
2023-04-09T04:05:26.104Z,50.70
2023-04-09T04:07:53.427Z,45.55
2023-04-09T04:10:20.688Z,50.65
2023-04-09T04:12:48.080Z,45.03
2023-04-09T04:15:15.085Z,44.08
2023-04-09T04:17:41.974Z,43.90
2023-04-09T04:20:10.557Z,45.25
2023-04-09T04:22:37.788Z,46.03
2023-04-09T04:25:05.487Z,48.15
2023-04-09T04:27:32.772Z,48.17
2023-04-09T04:30:00.329Z,51.65
2023-04-09T04:32:27.434Z,48.58
2023-04-09T04:34:54.622Z,52.28
2023-04-09T04:37:21.989Z,45.25
2023-04-09T04:39:49.208Z,44.40
2023-04-09T04:42:16.750Z,44.50
2023-04-09T04:44:44.508Z,46.63
2023-04-09T04:47:12.020Z,43.50
2023-04-09T04:49:38.924Z,41.47
2023-04-09T04:52:06.625Z,46.60
2023-04-09T04:54:34.530Z,59.10
2023-04-09T04:57:01.686Z,58.08
2023-04-09T04:59:28.722Z,57.47
2023-04-09T05:01:56.166Z,59.67
2023-04-09T05:04:23.583Z,41.47
2023-04-09T05:06:50.575Z,42.30
2023-04-09T05:09:17.378Z,38.38
2023-04-09T05:11:44.591Z,43.42
2023-04-09T05:14:13.156Z,42.25
2023-04-09T05:16:40.318Z,39.40
2023-04-09T05:19:08.258Z,38.42
2023-04-09T05:21:35.607Z,41.63
2023-04-09T05:24:02.738Z,43.42
2023-04-09T05:26:29.950Z,43.70
2023-04-09T05:28:57.169Z,44.92
2023-04-09T05:31:24.203Z,42.22
2023-04-09T05:33:51.136Z,46.22
2023-04-09T05:36:18.714Z,40.92
2023-04-09T05:38:47.425Z,39.67
2023-04-09T05:41:14.275Z,39.53
2023-04-09T05:43:42.786Z,42.30
2023-04-09T05:46:10.124Z,46.92
2023-04-09T05:48:37.495Z,41.80
2023-04-09T05:51:04.562Z,41.85
2023-04-09T05:53:32.112Z,33.38
2023-04-09T05:55:59.035Z,31.52
2023-04-09T05:58:26.003Z,27.00
2023-04-09T06:00:53.350Z,29.13
2023-04-09T06:03:20.974Z,29.83
2023-04-09T06:05:48.480Z,23.45
2023-04-09T06:08:16.227Z,33.13
2023-04-09T06:10:43.089Z,22.80
2023-04-09T06:13:10.435Z,26.90
2023-04-09T06:15:39.046Z,24.05
2023-04-09T06:18:06.537Z,34.92
2023-04-09T06:20:34.078Z,28.40
2023-04-09T06:23:02.322Z,30.30
2023-04-09T06:25:29.566Z,25.70
2023-04-09T06:27:56.868Z,25.15
2023-04-09T06:30:24.056Z,27.88
2023-04-09T06:32:54.918Z,27.13
2023-04-09T06:35:22.472Z,27.45
2023-04-09T06:37:49.776Z,28.90
2023-04-09T06:40:16.903Z,41.58
2023-04-09T06:42:44.170Z,31.65
2023-04-09T06:45:11.563Z,30.15
2023-04-09T06:47:38.430Z,28.65
2023-04-09T06:50:05.816Z,30.23
2023-04-09T06:52:33.045Z,33.72
2023-04-09T06:55:00.421Z,21.50
2023-04-09T06:57:27.671Z,22.63
2023-04-09T06:59:54.956Z,22.48
2023-04-09T07:02:22.340Z,18.70
2023-04-09T07:04:49.748Z,16.77
2023-04-09T07:07:16.872Z,15.50
2023-04-09T07:09:43.805Z,13.13
2023-04-09T07:12:11.097Z,13.15
2023-04-09T07:14:37.961Z,13.45
2023-04-09T07:17:05.430Z,13.88
2023-04-09T07:19:32.631Z,15.18
2023-04-09T07:21:59.420Z,13.73
2023-04-09T07:24:26.595Z,14.32
2023-04-09T07:26:53.912Z,12.65
2023-04-09T07:29:22.469Z,11.57
2023-04-09T07:31:49.793Z,12.45
2023-04-09T07:34:16.973Z,25.73
2023-04-09T07:36:44.263Z,12.75
2023-04-09T07:39:11.641Z,26.15
2023-04-09T07:41:38.840Z,25.13
2023-04-09T07:44:06.541Z,13.48
2023-04-09T07:46:34.554Z,14.63
2023-04-09T07:49:01.764Z,12.95
2023-04-09T07:51:28.650Z,13.10
2023-04-09T07:53:55.964Z,18.70
2023-04-09T07:56:23.192Z,11.88
2023-04-09T07:58:50.901Z,12.57
2023-04-09T08:01:18.353Z,13.98
2023-04-09T08:03:46.052Z,15.20
2023-04-09T08:06:13.036Z,12.57
2023-04-09T08:08:40.332Z,12.43
2023-04-09T08:11:07.709Z,12.95
2023-04-09T08:13:34.627Z,12.30
2023-04-09T08:16:05.161Z,15.65
2023-04-09T08:18:31.992Z,13.93
2023-04-09T08:20:59.279Z,13.40
2023-04-09T08:23:26.558Z,13.60
2023-04-09T08:25:53.491Z,13.27
2023-04-09T08:28:20.308Z,14.57
2023-04-09T08:30:48.961Z,14.55
2023-04-09T08:33:17.080Z,15.52
2023-04-09T08:35:44.840Z,13.57
2023-04-09T08:38:12.102Z,14.68
2023-04-09T08:40:39.412Z,15.65
2023-04-09T08:43:07.983Z,13.43
2023-04-09T08:45:35.388Z,16.08
2023-04-09T08:48:03.884Z,15.48
2023-04-09T08:50:32.631Z,15.98
2023-04-09T08:53:02.935Z,17.73
2023-04-09T08:55:31.308Z,15.13
2023-04-09T08:57:58.594Z,15.95
2023-04-09T09:00:26.251Z,14.80
2023-04-09T09:03:04.814Z,16.77
2023-04-09T09:05:40.346Z,29.40
2023-04-09T09:08:09.297Z,16.17
2023-04-09T09:10:43.309Z,13.93
2023-04-09T09:13:26.832Z,15.88
2023-04-09T09:16:13.140Z,17.77
2023-04-09T09:18:42.148Z,15.68
2023-04-09T09:21:13.630Z,17.20
2023-04-09T09:23:40.827Z,16.60
2023-04-09T09:26:16.538Z,16.27
2023-04-09T09:28:43.486Z,16.60
2023-04-09T09:31:12.509Z,16.23
2023-04-09T09:33:40.446Z,14.20
2023-04-09T09:36:09.578Z,61.58
2023-04-09T09:38:57.270Z,28.92
2023-04-09T09:41:25.962Z,15.57
2023-04-09T09:43:53.078Z,14.77
2023-04-09T09:46:21.830Z,12.13
2023-04-09T09:48:49.856Z,16.30
2023-04-09T09:51:17.430Z,11.63
2023-04-09T09:53:46.584Z,12.13
2023-04-09T09:56:18.971Z,13.55
2023-04-09T09:58:56.628Z,12.27
2023-04-09T10:01:26.648Z,11.55
2023-04-09T10:03:56.488Z,13.05
2023-04-09T10:06:24.042Z,12.52
2023-04-09T10:08:52.691Z,13.10
2023-04-09T10:11:20.916Z,13.68
2023-04-09T10:13:53.901Z,16.63
2023-04-09T10:16:23.427Z,12.35
2023-04-09T10:18:51.174Z,10.75
2023-04-09T10:21:54.853Z,14.57
2023-04-09T10:24:22.114Z,15.00
2023-04-09T10:26:49.004Z,11.77
2023-04-09T10:29:16.986Z,12.73
2023-04-09T10:31:50.075Z,13.00
2023-04-09T10:36:55.672Z,17.38
2023-04-09T10:39:32.053Z,19.73
2023-04-09T10:42:02.372Z,15.75
2023-04-09T10:44:32.918Z,14.93
2023-04-09T10:46:59.871Z,11.15
2023-04-09T10:49:27.566Z,10.40
2023-04-09T10:52:04.707Z,13.10
2023-04-09T10:54:34.305Z,11.02
2023-04-09T10:57:07.414Z,10.80
2023-04-09T10:59:40.468Z,11.30
2023-04-09T11:02:10.772Z,9.48
2023-04-09T11:04:56.518Z,8.45
2023-04-09T11:07:25.238Z,10.30
2023-04-09T11:09:52.442Z,8.88
2023-04-09T11:12:19.258Z,10.15
2023-04-09T11:14:46.133Z,12.02
2023-04-09T11:17:13.574Z,11.27
2023-04-09T11:19:40.617Z,9.25
2023-04-09T11:22:07.967Z,11.00
2023-04-09T11:24:44.758Z,11.25
2023-04-09T11:27:11.999Z,20.25
2023-04-09T11:29:39.134Z,9.77
2023-04-09T11:32:06.594Z,7.68
2023-04-09T11:34:33.860Z,9.73
2023-04-09T11:37:05.416Z,9.20
2023-04-09T11:39:32.264Z,11.15
2023-04-09T11:41:59.456Z,10.25
2023-04-09T11:44:26.674Z,8.02
2023-04-09T11:46:54.041Z,8.38
2023-04-09T11:49:22.177Z,8.35
2023-04-09T11:51:49.677Z,9.65
2023-04-09T11:54:16.514Z,8.60
2023-04-09T11:56:43.759Z,10.27
2023-04-09T11:59:11.008Z,7.75
2023-04-09T12:01:37.920Z,31.73
2023-04-09T12:04:06.964Z,8.20
2023-04-09T12:06:34.430Z,8.50
2023-04-09T12:09:01.935Z,7.47
2023-04-09T12:11:31.363Z,11.35
2023-04-09T12:14:05.225Z,7.50
2023-04-09T12:16:36.407Z,8.55
2023-04-09T12:19:11.413Z,7.13
2023-04-09T12:21:56.785Z,7.38
2023-04-09T12:24:25.836Z,7.45
2023-04-09T12:26:52.966Z,7.30
2023-04-09T12:29:21.468Z,9.70
2023-04-09T12:31:48.395Z,8.00
2023-04-09T12:34:15.296Z,6.70
2023-04-09T12:36:42.560Z,6.25
2023-04-09T12:39:10.011Z,6.22
2023-04-09T12:41:37.418Z,6.47
2023-04-09T12:44:05.193Z,6.70
2023-04-09T12:46:32.842Z,6.55
2023-04-09T12:48:59.753Z,5.32
2023-04-09T12:51:26.637Z,6.97
2023-04-09T12:53:54.055Z,6.85
2023-04-09T12:56:21.569Z,7.47
2023-04-09T12:58:48.416Z,6.35
2023-04-09T13:01:15.272Z,4.75
2023-04-09T13:03:42.655Z,5.65
2023-04-09T13:06:10.705Z,5.90
2023-04-09T13:08:37.522Z,6.43
2023-04-09T13:11:04.734Z,4.15
2023-04-09T13:13:32.541Z,6.03
2023-04-09T13:15:59.392Z,5.40
2023-04-09T13:18:26.259Z,11.27
2023-04-09T13:20:53.446Z,5.63
2023-04-09T13:23:20.521Z,6.63
2023-04-09T13:25:47.775Z,6.15
2023-04-09T13:28:14.654Z,11.32
2023-04-09T13:30:41.914Z,9.13
2023-04-09T13:33:09.191Z,10.77
2023-04-09T13:35:37.363Z,8.07
2023-04-09T13:38:04.265Z,10.52
2023-04-09T13:40:31.480Z,10.02
2023-04-09T13:42:58.734Z,8.10
2023-04-09T13:45:26.174Z,7.00
2023-04-09T13:47:53.979Z,10.30
2023-04-09T13:50:21.766Z,10.95
2023-04-09T13:52:48.953Z,10.18
2023-04-09T13:55:15.848Z,8.18
2023-04-09T13:57:42.713Z,7.88
2023-04-09T14:00:10.033Z,9.80
2023-04-09T14:02:37.322Z,9.85
2023-04-09T14:05:04.678Z,8.13
2023-04-09T14:07:32.194Z,8.82
2023-04-09T14:09:59.046Z,11.38
2023-04-09T14:12:26.201Z,7.22
2023-04-09T14:14:53.106Z,8.57
2023-04-09T14:17:20.356Z,7.93
2023-04-09T14:19:48.011Z,7.05
2023-04-09T14:22:15.468Z,10.13
2023-04-09T14:24:42.267Z,11.77
2023-04-09T14:27:09.789Z,8.88
2023-04-09T14:29:36.778Z,8.60
2023-04-09T14:32:03.610Z,8.13
2023-04-09T14:34:31.486Z,8.75
2023-04-09T14:36:58.715Z,7.25
2023-04-09T14:39:26.113Z,8.52
2023-04-09T14:41:53.061Z,9.48
2023-04-09T14:44:20.558Z,9.00
2023-04-09T14:46:47.836Z,6.40
2023-04-09T14:49:14.725Z,9.35
2023-04-09T14:51:41.932Z,7.07
2023-04-09T14:54:09.180Z,7.32
2023-04-09T14:56:36.572Z,9.38
2023-04-09T14:59:03.391Z,6.60
2023-04-09T15:01:32.521Z,11.45
2023-04-09T15:04:00.741Z,6.90
2023-04-09T15:06:29.084Z,5.75
2023-04-09T15:08:56.011Z,5.20
2023-04-09T15:11:23.113Z,5.55
2023-04-09T15:13:50.780Z,5.20
2023-04-09T15:16:25.872Z,7.18
2023-04-09T15:18:55.851Z,7.13
2023-04-09T15:21:23.389Z,6.30
2023-04-09T15:23:54.353Z,5.80
2023-04-09T15:26:21.552Z,5.32
2023-04-09T15:28:48.445Z,6.97
2023-04-09T15:31:15.725Z,6.25
2023-04-09T15:33:43.868Z,6.70
2023-04-09T15:36:11.712Z,8.27
2023-04-09T15:38:38.642Z,8.07
2023-04-09T15:41:06.053Z,6.57
2023-04-09T15:43:32.905Z,7.30
2023-04-09T15:46:00.436Z,7.50
2023-04-09T15:48:27.666Z,7.88
2023-04-09T15:50:54.890Z,7.68
2023-04-09T15:53:26.674Z,6.90
2023-04-09T15:55:53.561Z,7.05
2023-04-09T15:58:20.630Z,6.95
2023-04-09T16:00:51.098Z,8.60
2023-04-09T16:03:19.194Z,8.80
2023-04-09T16:05:48.186Z,8.52
2023-04-09T16:08:15.022Z,10.63
2023-04-09T16:10:41.800Z,10.63
2023-04-09T16:13:08.676Z,8.50
2023-04-09T16:15:36.105Z,7.68
2023-04-09T16:18:03.541Z,11.93
2023-04-09T16:20:31.141Z,8.65
2023-04-09T16:22:58.441Z,9.48
2023-04-09T16:25:25.262Z,11.70
2023-04-09T16:27:52.088Z,12.05
2023-04-09T16:30:19.830Z,16.02
2023-04-09T16:32:47.118Z,11.98
2023-04-09T16:35:14.383Z,11.02
2023-04-09T16:37:41.303Z,13.00
2023-04-09T16:40:08.789Z,11.88
2023-04-09T16:42:36.864Z,15.60
2023-04-09T16:45:04.722Z,16.05
2023-04-09T16:47:32.223Z,12.70
2023-04-09T16:49:59.125Z,10.77
2023-04-09T16:52:26.164Z,12.13
2023-04-09T16:54:53.373Z,18.15
2023-04-09T16:57:20.743Z,13.60
2023-04-09T16:59:47.600Z,20.05
2023-04-09T17:02:14.904Z,18.85
2023-04-09T17:04:41.919Z,25.35
2023-04-09T17:07:09.304Z,22.58
2023-04-09T17:09:36.752Z,24.70
2023-04-09T17:12:04.278Z,19.10
2023-04-09T17:14:33.845Z,20.38
2023-04-09T17:17:00.910Z,18.00
2023-04-09T17:19:27.773Z,22.40
2023-04-09T17:21:54.634Z,15.75
2023-04-09T17:24:21.481Z,16.63
2023-04-09T17:26:48.669Z,17.17
2023-04-09T17:29:16.623Z,18.67
2023-04-09T17:31:44.191Z,19.77
2023-04-09T17:34:11.701Z,16.23
2023-04-09T17:36:38.518Z,18.52
2023-04-09T17:39:06.423Z,15.60
2023-04-09T17:41:33.230Z,17.70
2023-04-09T17:44:00.832Z,17.98
2023-04-09T17:46:27.699Z,19.73
2023-04-09T17:48:55.116Z,17.58
2023-04-09T17:51:22.058Z,18.45
2023-04-09T17:53:49.283Z,16.02
2023-04-09T17:56:17.133Z,19.27
2023-04-09T17:58:44.795Z,18.23
2023-04-09T18:01:14.851Z,18.63
2023-04-09T18:03:43.056Z,15.77
2023-04-09T18:06:11.072Z,18.77
2023-04-09T18:08:38.239Z,18.85
2023-04-09T18:11:12.767Z,21.98
2023-04-09T18:13:41.074Z,18.65
2023-04-09T18:16:12.199Z,22.17
2023-04-09T18:18:39.632Z,25.75
2023-04-09T18:21:06.894Z,23.92
2023-04-09T18:23:34.125Z,24.50
2023-04-09T18:26:01.747Z,30.27
2023-04-09T18:28:29.364Z,31.42
2023-04-09T18:30:56.298Z,27.33
2023-04-09T18:33:23.206Z,33.65
2023-04-09T18:35:50.486Z,28.55
2023-04-09T18:38:17.896Z,31.42
2023-04-09T18:40:45.408Z,31.02
2023-04-09T18:43:12.713Z,29.30
2023-04-09T18:45:39.790Z,30.95
2023-04-09T18:48:08.138Z,26.45
2023-04-09T18:50:36.153Z,29.38
2023-04-09T18:53:03.700Z,28.90
2023-04-09T18:55:31.911Z,29.98
2023-04-09T18:57:59.196Z,29.77
2023-04-09T19:00:26.114Z,26.05
2023-04-09T19:02:53.808Z,29.70
2023-04-09T19:05:21.409Z,25.75
2023-04-09T19:07:48.687Z,30.67
2023-04-09T19:10:16.016Z,27.50
2023-04-09T19:12:49.808Z,24.05
2023-04-09T19:15:17.588Z,23.77
2023-04-09T19:17:44.913Z,27.88
2023-04-09T19:20:12.368Z,25.48
2023-04-09T19:22:39.579Z,57.15
2023-04-09T19:25:07.895Z,32.30
2023-04-09T19:27:34.893Z,27.63
2023-04-09T19:30:01.773Z,27.40
2023-04-09T19:32:29.054Z,33.50
2023-04-09T19:34:56.360Z,26.60
2023-04-09T19:37:27.982Z,25.85
2023-04-09T19:39:55.776Z,28.25
2023-04-09T19:42:23.091Z,26.05
2023-04-09T19:44:50.273Z,25.35
2023-04-09T19:47:17.083Z,26.90
2023-04-09T19:49:44.846Z,28.90
2023-04-09T19:52:12.127Z,30.30
2023-04-09T19:54:39.327Z,31.17
2023-04-09T19:57:06.861Z,29.17
2023-04-09T19:59:36.350Z,37.10
2023-04-09T20:02:03.903Z,29.50
2023-04-09T20:04:31.341Z,32.15
2023-04-09T20:06:58.609Z,34.45
2023-04-09T20:09:27.673Z,26.45
2023-04-09T20:11:55.021Z,31.67
2023-04-09T20:14:22.059Z,29.42
2023-04-09T20:16:49.410Z,34.25
2023-04-09T20:19:16.809Z,36.30
2023-04-09T20:21:43.842Z,35.95
2023-04-09T20:24:11.413Z,40.55
2023-04-09T20:26:38.673Z,39.20
2023-04-09T20:29:05.475Z,41.72
2023-04-09T20:31:34.987Z,40.88
2023-04-09T20:34:03.210Z,67.13
2023-04-09T20:36:30.555Z,49.55
2023-04-09T20:38:57.371Z,40.50
2023-04-09T20:41:24.722Z,32.67
2023-04-09T20:43:51.585Z,37.58
2023-04-09T20:46:19.167Z,36.08
2023-04-09T20:48:46.165Z,35.50
2023-04-09T20:51:14.159Z,33.70
2023-04-09T20:53:41.023Z,35.45
2023-04-09T20:56:09.265Z,36.22
2023-04-09T20:58:36.864Z,34.45
2023-04-09T21:01:06.791Z,34.53
2023-04-09T21:03:35.089Z,35.35
2023-04-09T21:06:02.604Z,35.65
2023-04-09T21:08:30.285Z,32.67
2023-04-09T21:10:57.286Z,35.28
2023-04-09T21:13:25.141Z,33.47
2023-04-09T21:15:52.335Z,33.50
2023-04-09T21:18:19.867Z,38.45
2023-04-09T21:20:46.790Z,45.15
2023-04-09T21:23:13.740Z,35.67
2023-04-09T21:25:41.242Z,32.17
2023-04-09T21:28:08.760Z,35.45
2023-04-09T21:30:37.735Z,31.52
2023-04-09T21:33:09.463Z,38.70
2023-04-09T21:35:36.919Z,35.20
2023-04-09T21:38:04.061Z,39.63
2023-04-09T21:40:31.509Z,40.65
2023-04-09T21:42:58.904Z,33.20
2023-04-09T21:45:26.340Z,33.28
2023-04-09T21:47:53.210Z,37.22
2023-04-09T21:50:20.481Z,36.08
2023-04-09T21:52:47.743Z,35.83
2023-04-09T21:55:14.617Z,33.92
2023-04-09T21:57:41.479Z,36.85
2023-04-09T22:00:10.934Z,32.17
2023-04-09T22:02:39.559Z,34.42
2023-04-09T22:05:06.992Z,40.25
2023-04-09T22:07:35.930Z,38.60
2023-04-09T22:10:03.217Z,39.15
2023-04-09T22:12:30.473Z,46.42
2023-04-09T22:14:57.356Z,45.92
2023-04-09T22:17:24.654Z,40.63
2023-04-09T22:19:51.612Z,40.78
2023-04-09T22:22:18.885Z,39.00
2023-04-09T22:24:46.398Z,38.83
2023-04-09T22:27:13.326Z,37.08
2023-04-09T22:29:40.416Z,34.60
2023-04-09T22:32:07.429Z,34.85
2023-04-09T22:34:34.330Z,34.53
2023-04-09T22:37:02.156Z,33.03
2023-04-09T22:39:29.797Z,30.30
2023-04-09T22:41:58.388Z,30.30
2023-04-09T22:44:25.695Z,31.30
2023-04-09T22:46:53.116Z,75.57
2023-04-09T22:49:20.211Z,40.85
2023-04-09T22:51:47.125Z,34.17
2023-04-09T22:54:14.372Z,32.55
2023-04-09T22:56:41.304Z,31.55
2023-04-09T22:59:08.548Z,29.98
2023-04-09T23:01:35.900Z,26.05
2023-04-09T23:04:03.221Z,31.40
2023-04-09T23:06:31.054Z,26.45
2023-04-09T23:09:00.479Z,26.95
2023-04-09T23:11:27.766Z,24.67
2023-04-09T23:13:54.657Z,23.48
2023-04-09T23:16:22.085Z,28.75
2023-04-09T23:18:48.953Z,29.48
2023-04-09T23:21:15.935Z,25.58
2023-04-09T23:23:43.179Z,23.58
2023-04-09T23:26:10.125Z,27.42
2023-04-09T23:28:36.963Z,28.42
2023-04-09T23:31:04.311Z,30.48
2023-04-09T23:33:32.569Z,28.23
2023-04-09T23:35:59.836Z,29.95
2023-04-09T23:38:27.200Z,34.00
2023-04-09T23:40:54.436Z,33.53
2023-04-09T23:43:21.244Z,27.40
2023-04-09T23:45:50.855Z,29.25
2023-04-09T23:48:18.105Z,28.88
2023-04-09T23:50:45.432Z,28.40
2023-04-09T23:53:12.673Z,29.42
2023-04-09T23:55:41.442Z,28.98
2023-04-09T23:58:09.762Z,31.92
